Web Analytics

Nearby METAR Reports

 

LGTS - Thessaloniki/Mik, Greece
Distance from station: S 19km
Updated: 15/08/2022 15:20
Few Clouds
Few Clouds
 Wind from W
Wind: W 17 km/h
Temperature: 30°C
Heat Index: 30°C
Dew Point: 16°C
Humidity: 43%
Barometer: 1008 hPa
Clouds: Few Clouds
Visibility: 10 km
Cloud details: Few Clouds 610 m
2022/08/15 12:20 LGTS 151220Z 27009KT 9999 FEW020 30/16 Q1008 NOSIG
LGKZ - Kozani (civ/Army, Greece
Distance from station: WSW 108km
Updated: 15/08/2022 14:50
Partly cloudy
Partly cloudy
 Wind from NNW
Wind: NNW 15 km/h
Temperature: 27°C
Dew Point: 7°C
Humidity: 28%
Barometer: 1011 hPa
Clouds: Partly cloudy
Visibility: 10 km
Cloud details: Few Clouds 762 m
Partly cloudy 2134 m
2022/08/15 11:50 LGKZ 151150Z 34008KT 9999 FEW025 SCT070 27/07 Q1011
 
LWSK - Skopje/Petrovac, Northen Macedonia
Distance from station: NW 183km
Updated: 15/08/2022 15:30
Few Clouds
Few Clouds
 Wind from WNW
Wind: WNW 7 km/h
Temperature: 30°C
Heat Index: 29°C
Dew Point: 15°C
Humidity: 40%
Barometer: 1009 hPa
Clouds: Few Clouds
Visibility: 10 km
Cloud details: Few Clouds 1524 m
2022/08/15 12:30 LWSK 151230Z 29004KT 220V320 9999 FEW050 30/15 Q1009 NOSIG
LWOH - Ohrid, Northen Macedonia
Distance from station: WNW 197km
Updated: 15/08/2022 15:30
Few Clouds
Few Clouds
 Wind from SSE
Wind: SSE 15 km/h
Temperature: 25°C
Dew Point: 11°C
Humidity: 42%
Barometer: 1012 hPa
Clouds: Few Clouds
Visibility: 10 km
Cloud details: Few Clouds 1219 m
2022/08/15 12:30 LWOH 151230Z 15008KT 9999 FEW040 25/11 Q1012